Time;durP1;ratioP1;P1;durP2;ratioP2;P2;SDS_P1;SDS_P2;PMS_P1;PMS_P2;Temp;Humidity;BMP_temperature;BMP_pressure;BME280_temperature;BME280_humidity;BME280_pressure;Samples;Min_cycle;Max_cycle;Signal;HPM_P1;HPM_P2
2024/02/21 00:01:14;;;;;;;28.40;12.43;;;;;;;;;;5049878;28;20683;-75
2024/02/21 00:03:41;;;;;;;34.33;11.50;;;;;;;;;;5064166;28;20044;-74
2024/02/21 00:06:07;;;;;;;21.95;11.30;;;;;;;;;;5082110;28;20040;-74
2024/02/21 00:08:33;;;;;;;26.67;11.18;;;;;;;;;;5077648;28;20044;-74
2024/02/21 00:11:00;;;;;;;28.13;11.70;;;;;;;;;;5085816;28;20048;-74
2024/02/21 00:13:27;;;;;;;24.88;11.45;;;;;;;;;;5075383;28;20117;-74
2024/02/21 00:15:53;;;;;;;24.30;11.70;;;;;;;;;;5074937;28;20613;-75
2024/02/21 00:18:20;;;;;;;25.48;10.90;;;;;;;;;;5077249;28;20143;-75
2024/02/21 00:20:46;;;;;;;25.23;11.00;;;;;;;;;;5058316;28;20068;-74
2024/02/21 00:23:13;;;;;;;32.03;11.20;;;;;;;;;;5081756;28;20051;-74
2024/02/21 00:25:39;;;;;;;23.52;10.48;;;;;;;;;;5077448;28;20082;-75
2024/02/21 00:28:06;;;;;;;25.95;10.88;;;;;;;;;;5065566;28;20408;-73
2024/02/21 00:30:32;;;;;;;25.30;11.23;;;;;;;;;;5061199;28;20059;-74
2024/02/21 00:32:59;;;;;;;23.73;11.18;;;;;;;;;;5063100;28;20075;-74
2024/02/21 00:35:25;;;;;;;28.20;12.50;;;;;;;;;;5084253;28;20101;-75
2024/02/21 00:37:52;;;;;;;21.77;10.98;;;;;;;;;;5062615;28;20181;-77
2024/02/21 00:40:20;;;;;;;31.85;10.90;;;;;;;;;;5054307;28;20571;-76
2024/02/21 00:42:46;;;;;;;22.58;10.70;;;;;;;;;;5082042;27;20048;-77
2024/02/21 00:45:13;;;;;;;24.20;11.05;;;;;;;;;;5086609;28;20489;-77
2024/02/21 00:47:39;;;;;;;23.92;10.60;;;;;;;;;;5076422;28;20135;-77
2024/02/21 00:50:07;;;;;;;21.23;10.38;;;;;;;;;;5064574;28;21254;-77
2024/02/21 00:52:36;;;;;;;24.10;11.57;;;;;;;;;;5097365;28;20062;-78
2024/02/21 00:55:02;;;;;;;24.02;11.13;;;;;;;;;;5056777;28;20063;-77
2024/02/21 00:57:28;;;;;;;18.77;10.25;;;;;;;;;;5064640;28;20059;-77
2024/02/21 00:59:55;;;;;;;24.45;10.23;;;;;;;;;;5066226;28;20400;-76
2024/02/21 01:02:21;;;;;;;23.50;10.88;;;;;;;;;;5069324;28;20043;-77
2024/02/21 01:04:48;;;;;;;21.77;10.68;;;;;;;;;;5067755;28;20055;-78
2024/02/21 01:07:14;;;;;;;24.85;10.15;;;;;;;;;;5074983;28;20043;-78
2024/02/21 01:09:41;;;;;;;23.58;11.15;;;;;;;;;;5069365;28;20031;-77
2024/02/21 01:12:07;;;;;;;29.77;11.30;;;;;;;;;;5072160;28;20082;-78
2024/02/21 01:14:33;;;;;;;23.23;10.40;;;;;;;;;;5086260;28;20055;-78
2024/02/21 01:17:01;;;;;;;20.27;10.60;;;;;;;;;;5065779;28;20083;-78
2024/02/21 01:19:27;;;;;;;23.27;10.63;;;;;;;;;;5077238;28;20558;-78
2024/02/21 01:21:54;;;;;;;20.77;9.80;;;;;;;;;;5078678;28;20454;-77
2024/02/21 01:24:20;;;;;;;32.13;11.38;;;;;;;;;;5077983;28;20060;-77
2024/02/21 01:26:47;;;;;;;23.40;10.48;;;;;;;;;;5064412;28;20107;-77
2024/02/21 01:29:13;;;;;;;18.40;8.85;;;;;;;;;;5069033;28;20130;-78
2024/02/21 01:31:39;;;;;;;20.80;9.65;;;;;;;;;;5058707;28;20515;-77
2024/02/21 01:34:06;;;;;;;19.55;9.93;;;;;;;;;;5065260;28;20083;-78
2024/02/21 01:36:32;;;;;;;18.65;9.68;;;;;;;;;;5075175;28;20076;-78
2024/02/21 01:38:59;;;;;;;21.77;9.98;;;;;;;;;;5062301;28;20052;-78
2024/02/21 01:41:25;;;;;;;21.58;9.80;;;;;;;;;;5060021;28;20112;-78
2024/02/21 01:43:51;;;;;;;22.73;10.18;;;;;;;;;;5079665;28;20131;-78
2024/02/21 01:46:18;;;;;;;21.10;10.45;;;;;;;;;;5086321;28;20048;-77
2024/02/21 01:48:46;;;;;;;24.50;10.80;;;;;;;;;;5061617;28;20047;-78
2024/02/21 01:51:13;;;;;;;27.43;10.10;;;;;;;;;;5074187;28;20080;-77
2024/02/21 01:53:42;;;;;;;21.98;10.05;;;;;;;;;;5086306;28;20047;-78
2024/02/21 01:56:09;;;;;;;19.58;10.02;;;;;;;;;;5083506;28;20048;-77
2024/02/21 01:58:40;;;;;;;19.80;9.75;;;;;;;;;;5067689;28;20075;-77
2024/02/21 02:01:06;;;;;;;27.42;10.32;;;;;;;;;;5086116;28;20055;-77
2024/02/21 02:03:33;;;;;;;25.95;11.32;;;;;;;;;;5072582;28;20127;-78
2024/02/21 02:06:00;;;;;;;25.70;11.05;;;;;;;;;;5077074;28;20117;-77
2024/02/21 02:08:26;;;;;;;20.50;10.25;;;;;;;;;;5095164;28;20098;-78
2024/02/21 02:10:52;;;;;;;19.70;10.02;;;;;;;;;;5059995;28;20480;-78
2024/02/21 02:13:19;;;;;;;27.73;9.98;;;;;;;;;;5071509;28;20094;-78
2024/02/21 02:15:49;;;;;;;24.30;11.02;;;;;;;;;;5077956;28;20094;-77
2024/02/21 02:18:16;;;;;;;20.92;10.40;;;;;;;;;;5060263;28;20822;-77
2024/02/21 02:20:46;;;;;;;19.70;9.07;;;;;;;;;;5062994;28;20048;-79
2024/02/21 02:23:27;;;;;;;22.23;10.88;;;;;;;;;;5062167;28;20047;-78
2024/02/21 02:25:54;;;;;;;22.85;10.60;;;;;;;;;;5077995;28;20055;-77
2024/02/21 02:28:21;;;;;;;21.70;11.55;;;;;;;;;;5067449;28;20815;-78
2024/02/21 02:30:48;;;;;;;24.05;10.70;;;;;;;;;;5074487;28;20424;-78
2024/02/21 02:33:17;;;;;;;17.52;10.10;;;;;;;;;;5077434;28;20072;-80
2024/02/21 02:35:43;;;;;;;22.10;10.13;;;;;;;;;;5069981;28;20080;-77
2024/02/21 02:38:11;;;;;;;24.30;11.27;;;;;;;;;;5077704;28;20072;-79
2024/02/21 02:40:38;;;;;;;22.63;10.40;;;;;;;;;;5064808;28;20067;-78
2024/02/21 02:43:04;;;;;;;22.00;10.68;;;;;;;;;;5088281;28;20052;-80
2024/02/21 02:45:31;;;;;;;20.35;9.40;;;;;;;;;;5072506;28;20051;-79
2024/02/21 02:47:58;;;;;;;23.67;9.93;;;;;;;;;;5080578;28;20044;-79
2024/02/21 02:50:25;;;;;;;25.30;10.75;;;;;;;;;;5073416;28;20136;-80
2024/02/21 02:52:55;;;;;;;24.70;9.07;;;;;;;;;;5081760;28;20044;-80
2024/02/21 02:55:22;;;;;;;19.70;10.45;;;;;;;;;;5061297;28;20060;-80
2024/02/21 02:57:49;;;;;;;25.00;10.27;;;;;;;;;;5070541;28;20400;-80
2024/02/21 03:00:15;;;;;;;22.08;9.85;;;;;;;;;;5079095;28;20055;-80
2024/02/21 03:02:43;;;;;;;19.35;9.27;;;;;;;;;;5090361;28;20071;-80
2024/02/21 03:05:19;;;;;;;22.70;9.63;;;;;;;;;;5074005;28;20048;-79
2024/02/21 03:07:47;;;;;;;17.20;8.90;;;;;;;;;;5079987;28;20078;-80
2024/02/21 03:10:13;;;;;;;25.08;10.25;;;;;;;;;;5071197;28;20067;-80
2024/02/21 03:12:40;;;;;;;20.48;9.63;;;;;;;;;;5079385;28;20639;-81
2024/02/21 03:15:07;;;;;;;25.88;9.65;;;;;;;;;;5081691;28;20043;-81
2024/02/21 03:17:36;;;;;;;25.42;9.75;;;;;;;;;;5086051;28;20132;-81
2024/02/21 03:20:05;;;;;;;20.75;9.25;;;;;;;;;;5075697;28;20504;-81
2024/02/21 03:22:35;;;;;;;25.02;10.50;;;;;;;;;;5063291;28;20447;-81
2024/02/21 03:25:01;;;;;;;18.88;9.10;;;;;;;;;;5075310;28;20059;-78
2024/02/21 03:27:28;;;;;;;24.80;9.18;;;;;;;;;;5072303;28;20045;-79
2024/02/21 03:29:54;;;;;;;18.23;8.63;;;;;;;;;;5083107;28;20725;-78
2024/02/21 03:32:21;;;;;;;19.48;8.52;;;;;;;;;;5071717;28;20052;-81
2024/02/21 03:34:47;;;;;;;24.92;9.55;;;;;;;;;;5078152;28;20059;-81
2024/02/21 03:37:14;;;;;;;19.67;7.85;;;;;;;;;;5069019;28;20537;-80
2024/02/21 03:39:41;;;;;;;18.80;8.20;;;;;;;;;;5078350;28;20048;-80
2024/02/21 03:42:07;;;;;;;16.80;7.85;;;;;;;;;;5066542;28;20484;-81
2024/02/21 03:44:33;;;;;;;18.10;7.18;;;;;;;;;;5074704;28;20113;-81
2024/02/21 03:47:00;;;;;;;25.52;8.60;;;;;;;;;;5074598;28;20071;-80
2024/02/21 03:49:26;;;;;;;19.15;7.93;;;;;;;;;;5089916;28;20130;-80
2024/02/21 03:51:53;;;;;;;19.17;7.88;;;;;;;;;;5078974;28;20047;-79
2024/02/21 03:54:19;;;;;;;18.25;7.10;;;;;;;;;;5075210;28;20041;-81
2024/02/21 03:56:49;;;;;;;18.00;6.97;;;;;;;;;;5064158;28;20136;-79
2024/02/21 03:59:15;;;;;;;18.67;7.55;;;;;;;;;;5066744;28;20040;-77
2024/02/21 04:01:42;;;;;;;14.88;6.60;;;;;;;;;;5083282;28;20055;-77
2024/02/21 04:04:09;;;;;;;13.63;6.47;;;;;;;;;;5078315;28;20798;-77
2024/02/21 04:06:36;;;;;;;17.88;6.97;;;;;;;;;;5070026;28;20055;-76
2024/02/21 04:09:03;;;;;;;14.77;6.45;;;;;;;;;;5062705;28;20040;-74
2024/02/21 04:11:29;;;;;;;16.90;6.28;;;;;;;;;;5076248;28;20044;-75
2024/02/21 04:13:56;;;;;;;14.77;6.97;;;;;;;;;;5061925;28;20781;-77
2024/02/21 04:16:22;;;;;;;16.83;6.50;;;;;;;;;;5065659;28;20129;-76
2024/02/21 04:18:49;;;;;;;18.05;6.50;;;;;;;;;;5081987;28;20381;-76
2024/02/21 04:21:17;;;;;;;14.80;6.03;;;;;;;;;;5063378;28;20056;-76
2024/02/21 04:23:43;;;;;;;13.82;6.10;;;;;;;;;;5074010;28;20048;-76
2024/02/21 04:26:10;;;;;;;15.23;6.05;;;;;;;;;;5051696;28;20048;-76
2024/02/21 04:28:36;;;;;;;14.20;6.10;;;;;;;;;;5055350;28;20056;-76
2024/02/21 04:31:03;;;;;;;15.30;6.88;;;;;;;;;;5049606;28;20114;-76
2024/02/21 04:33:29;;;;;;;18.17;5.93;;;;;;;;;;5058455;28;20146;-76
2024/02/21 04:35:55;;;;;;;16.27;6.45;;;;;;;;;;5076276;28;20109;-77
2024/02/21 04:38:22;;;;;;;16.90;6.40;;;;;;;;;;5075157;28;20049;-77
2024/02/21 04:40:48;;;;;;;12.15;5.75;;;;;;;;;;5079845;28;20519;-74
2024/02/21 04:43:15;;;;;;;17.67;6.13;;;;;;;;;;5043661;28;20041;-75
2024/02/21 04:45:41;;;;;;;14.77;5.35;;;;;;;;;;5064156;28;20725;-76
2024/02/21 04:48:08;;;;;;;16.65;6.05;;;;;;;;;;5065052;28;20141;-76
2024/02/21 04:50:34;;;;;;;13.77;5.68;;;;;;;;;;5062588;28;20052;-76
2024/02/21 04:53:01;;;;;;;13.30;5.60;;;;;;;;;;5074479;28;20054;-76
2024/02/21 04:55:27;;;;;;;15.15;5.95;;;;;;;;;;5063485;28;20048;-76
2024/02/21 04:57:54;;;;;;;13.90;6.53;;;;;;;;;;5064946;28;20708;-77
2024/02/21 05:00:20;;;;;;;14.27;6.80;;;;;;;;;;5083928;28;20127;-78
2024/02/21 05:02:46;;;;;;;16.40;6.80;;;;;;;;;;5081148;28;20106;-77
2024/02/21 05:05:15;;;;;;;10.23;5.82;;;;;;;;;;5075177;28;20052;-76
2024/02/21 05:07:41;;;;;;;14.32;6.22;;;;;;;;;;5071136;28;20464;-77
2024/02/21 05:10:09;;;;;;;15.15;7.10;;;;;;;;;;5063129;28;20044;-77
2024/02/21 05:12:35;;;;;;;14.43;6.68;;;;;;;;;;5081925;28;20047;-76
2024/02/21 05:15:02;;;;;;;17.40;7.05;;;;;;;;;;5073438;28;20203;-77
2024/02/21 05:17:29;;;;;;;15.40;7.50;;;;;;;;;;5098715;27;20105;-79
2024/02/21 05:19:56;;;;;;;17.73;7.38;;;;;;;;;;5050433;28;20075;-79
2024/02/21 05:22:22;;;;;;;15.05;8.02;;;;;;;;;;5061340;28;20044;-81
2024/02/21 05:24:49;;;;;;;17.13;7.78;;;;;;;;;;5075002;28;20048;-79
2024/02/21 05:27:15;;;;;;;16.77;6.85;;;;;;;;;;5066446;28;20079;-80
2024/02/21 05:29:41;;;;;;;12.43;7.55;;;;;;;;;;5056750;28;20052;-80
2024/02/21 05:32:08;;;;;;;15.63;7.50;;;;;;;;;;5054816;28;20036;-80
2024/02/21 05:34:34;;;;;;;19.88;8.30;;;;;;;;;;5067942;28;20048;-80
2024/02/21 05:37:01;;;;;;;20.63;8.30;;;;;;;;;;5055258;28;20653;-80
2024/02/21 05:39:29;;;;;;;18.33;8.88;;;;;;;;;;5079748;28;20125;-80
2024/02/21 05:41:56;;;;;;;15.45;8.32;;;;;;;;;;5058654;28;20052;-79
2024/02/21 05:44:22;;;;;;;13.93;7.60;;;;;;;;;;5069530;28;20048;-79
2024/02/21 05:46:49;;;;;;;18.38;7.35;;;;;;;;;;5060765;28;20130;-80
2024/02/21 05:49:15;;;;;;;15.65;7.60;;;;;;;;;;5063647;28;20048;-80
2024/02/21 05:51:42;;;;;;;13.02;7.15;;;;;;;;;;5071963;28;20631;-80
2024/02/21 05:54:08;;;;;;;17.33;8.30;;;;;;;;;;5079024;28;20505;-79
2024/02/21 05:56:35;;;;;;;14.30;8.18;;;;;;;;;;5076387;28;20062;-81
2024/02/21 05:59:01;;;;;;;17.30;8.35;;;;;;;;;;5070363;28;20048;-80
2024/02/21 06:01:27;;;;;;;21.08;7.88;;;;;;;;;;5077995;28;20052;-80
2024/02/21 06:03:54;;;;;;;18.90;8.93;;;;;;;;;;5073441;28;20051;-81
2024/02/21 06:06:24;;;;;;;14.73;7.93;;;;;;;;;;5072107;28;20549;-80
2024/02/21 06:08:51;;;;;;;19.23;8.52;;;;;;;;;;5077270;28;20510;-80
2024/02/21 06:11:18;;;;;;;20.75;8.70;;;;;;;;;;5062025;28;20113;-81
2024/02/21 06:13:44;;;;;;;19.80;7.63;;;;;;;;;;5080360;28;20155;-80
2024/02/21 06:16:11;;;;;;;17.10;6.97;;;;;;;;;;5088967;28;20051;-80
2024/02/21 06:18:37;;;;;;;14.15;7.38;;;;;;;;;;5064145;28;20131;-79
2024/02/21 06:21:04;;;;;;;16.15;6.80;;;;;;;;;;5072264;28;20076;-79
2024/02/21 06:23:30;;;;;;;18.95;7.57;;;;;;;;;;5045483;28;20072;-78
2024/02/21 06:25:57;;;;;;;15.90;7.15;;;;;;;;;;5066320;28;20080;-80
2024/02/21 06:28:23;;;;;;;15.90;7.22;;;;;;;;;;5105147;28;20075;-75
2024/02/21 06:30:50;;;;;;;16.42;7.03;;;;;;;;;;5066076;28;20055;-77
2024/02/21 06:33:16;;;;;;;15.90;7.18;;;;;;;;;;5071983;28;20080;-77
2024/02/21 06:35:46;;;;;;;10.57;5.88;;;;;;;;;;5083688;28;20052;-77
2024/02/21 06:38:12;;;;;;;12.93;7.00;;;;;;;;;;5085394;28;20863;-76
2024/02/21 06:40:39;;;;;;;17.85;6.88;;;;;;;;;;5067231;28;20612;-77
2024/02/21 06:43:07;;;;;;;16.50;6.82;;;;;;;;;;5074706;28;20102;-76
2024/02/21 06:45:33;;;;;;;13.35;6.53;;;;;;;;;;5089840;28;20044;-76
2024/02/21 06:48:00;;;;;;;17.45;7.78;;;;;;;;;;5054833;28;20097;-76
2024/02/21 06:50:26;;;;;;;18.80;6.50;;;;;;;;;;5092229;28;20036;-77
2024/02/21 06:52:53;;;;;;;18.88;7.10;;;;;;;;;;5064673;28;20048;-76
2024/02/21 06:55:19;;;;;;;15.43;6.70;;;;;;;;;;5077692;28;20068;-77
2024/02/21 06:57:48;;;;;;;20.65;7.13;;;;;;;;;;5071189;28;20492;-76
2024/02/21 07:00:14;;;;;;;17.17;7.57;;;;;;;;;;5061953;28;20050;-77
2024/02/21 07:02:41;;;;;;;14.73;7.97;;;;;;;;;;5088206;28;20048;-77
2024/02/21 07:05:07;;;;;;;19.25;7.63;;;;;;;;;;5077828;28;20079;-76
2024/02/21 07:07:35;;;;;;;21.42;7.97;;;;;;;;;;5067762;28;20108;-76
2024/02/21 07:10:01;;;;;;;16.58;6.30;;;;;;;;;;5053113;28;20376;-76
2024/02/21 07:12:28;;;;;;;23.85;7.63;;;;;;;;;;5088557;28;20105;-76
2024/02/21 07:14:54;;;;;;;18.67;7.10;;;;;;;;;;5070119;28;20070;-76
2024/02/21 07:17:21;;;;;;;14.77;6.85;;;;;;;;;;5080264;28;20423;-76
2024/02/21 07:19:47;;;;;;;20.33;7.22;;;;;;;;;;5071781;28;20465;-76
2024/02/21 07:22:13;;;;;;;14.27;7.05;;;;;;;;;;5067361;28;20049;-76
2024/02/21 07:24:40;;;;;;;15.23;7.20;;;;;;;;;;5062313;28;20048;-76
2024/02/21 07:27:06;;;;;;;13.02;6.88;;;;;;;;;;5080602;28;20550;-76
2024/02/21 07:29:33;;;;;;;16.75;7.68;;;;;;;;;;5050719;28;20138;-76
2024/02/21 07:31:59;;;;;;;23.10;7.88;;;;;;;;;;5064097;28;20354;-75
2024/02/21 07:34:26;;;;;;;16.13;6.97;;;;;;;;;;5060060;28;20052;-76
2024/02/21 07:36:52;;;;;;;11.90;6.50;;;;;;;;;;5072971;28;20137;-78
2024/02/21 07:39:19;;;;;;;15.60;6.78;;;;;;;;;;5066064;28;20076;-78
2024/02/21 07:41:46;;;;;;;22.17;7.20;;;;;;;;;;5080837;28;20171;-78
2024/02/21 07:44:13;;;;;;;13.57;6.03;;;;;;;;;;5074175;28;20638;-77
2024/02/21 07:46:39;;;;;;;15.60;6.38;;;;;;;;;;5084810;28;20395;-77
2024/02/21 07:49:05;;;;;;;19.83;8.02;;;;;;;;;;5073819;28;20054;-77
2024/02/21 07:51:32;;;;;;;12.48;6.93;;;;;;;;;;5070072;28;20044;-77
2024/02/21 07:53:58;;;;;;;13.48;6.55;;;;;;;;;;5055592;28;20056;-78
2024/02/21 07:56:27;;;;;;;15.60;6.32;;;;;;;;;;5058332;28;20099;-77
2024/02/21 07:58:54;;;;;;;15.90;7.03;;;;;;;;;;5075948;28;20070;-77
2024/02/21 08:01:20;;;;;;;21.75;6.93;;;;;;;;;;5087383;28;20072;-78
2024/02/21 08:03:47;;;;;;;16.17;7.18;;;;;;;;;;5061690;28;20060;-77
2024/02/21 08:06:13;;;;;;;16.92;7.70;;;;;;;;;;5067425;28;20101;-77
2024/02/21 08:08:40;;;;;;;18.33;7.03;;;;;;;;;;5077091;28;20049;-77
2024/02/21 08:11:07;;;;;;;16.15;7.53;;;;;;;;;;5092848;28;20561;-77
2024/02/21 08:13:33;;;;;;;13.90;6.82;;;;;;;;;;5069431;28;20433;-77
2024/02/21 08:16:00;;;;;;;17.00;7.45;;;;;;;;;;5077251;28;20083;-77
2024/02/21 08:18:26;;;;;;;17.45;8.23;;;;;;;;;;5069764;28;20052;-76
2024/02/21 08:20:53;;;;;;;19.88;7.55;;;;;;;;;;5071941;28;20058;-77
2024/02/21 08:23:22;;;;;;;19.15;8.38;;;;;;;;;;5073579;28;20114;-76
2024/02/21 08:25:49;;;;;;;19.52;7.93;;;;;;;;;;5078536;28;20166;-77
2024/02/21 08:28:15;;;;;;;14.45;7.20;;;;;;;;;;5059047;28;20052;-78
2024/02/21 08:30:47;;;;;;;15.32;7.38;;;;;;;;;;5074103;28;20139;-77
2024/02/21 08:33:17;;;;;;;15.20;7.93;;;;;;;;;;5063067;28;20051;-77
2024/02/21 08:35:44;;;;;;;16.25;8.07;;;;;;;;;;5068767;28;20051;-76
2024/02/21 08:38:10;;;;;;;17.80;8.20;;;;;;;;;;5060295;28;20044;-77
2024/02/21 08:40:37;;;;;;;15.85;7.97;;;;;;;;;;5062232;28;20052;-77
2024/02/21 08:43:03;;;;;;;19.65;7.65;;;;;;;;;;5067941;28;20047;-78
2024/02/21 08:45:30;;;;;;;14.68;8.20;;;;;;;;;;5069760;28;20044;-76
2024/02/21 08:47:56;;;;;;;20.70;8.02;;;;;;;;;;5062034;28;20437;-76
2024/02/21 08:50:23;;;;;;;15.73;9.25;;;;;;;;;;5077550;28;20051;-76
2024/02/21 08:52:55;;;;;;;16.42;7.50;;;;;;;;;;5056207;28;20044;-76
2024/02/21 08:55:22;;;;;;;13.70;7.20;;;;;;;;;;5099577;28;20052;-77
2024/02/21 08:57:48;;;;;;;12.93;6.63;;;;;;;;;;5078988;28;20790;-77
2024/02/21 09:00:15;;;;;;;13.55;6.70;;;;;;;;;;5080131;28;20047;-76
2024/02/21 09:02:45;;;;;;;12.02;7.10;;;;;;;;;;5064167;28;20087;-76
2024/02/21 09:05:11;;;;;;;16.13;8.27;;;;;;;;;;5083172;28;20176;-76
2024/02/21 09:07:38;;;;;;;13.35;6.97;;;;;;;;;;5064093;28;20048;-77
2024/02/21 09:10:05;;;;;;;13.90;6.65;;;;;;;;;;5052212;28;20052;-78
2024/02/21 09:12:31;;;;;;;15.63;7.25;;;;;;;;;;5070694;28;20052;-77
2024/02/21 09:14:58;;;;;;;14.75;7.32;;;;;;;;;;5048848;28;20040;-78
2024/02/21 09:17:25;;;;;;;17.75;7.78;;;;;;;;;;5083477;28;20105;-77
2024/02/21 09:19:52;;;;;;;15.80;6.45;;;;;;;;;;5057481;28;20059;-77
2024/02/21 09:22:18;;;;;;;12.75;6.18;;;;;;;;;;5073977;28;20052;-75
2024/02/21 09:24:45;;;;;;;17.25;7.70;;;;;;;;;;5065899;28;20056;-77
2024/02/21 09:27:11;;;;;;;13.52;7.00;;;;;;;;;;5065434;28;20043;-77
2024/02/21 09:29:39;;;;;;;11.23;6.25;;;;;;;;;;5080066;28;20056;-76
2024/02/21 09:32:06;;;;;;;12.18;6.55;;;;;;;;;;5052758;28;20063;-76
2024/02/21 09:34:33;;;;;;;13.82;6.18;;;;;;;;;;5050807;28;20043;-76
2024/02/21 09:36:59;;;;;;;15.18;6.78;;;;;;;;;;5071230;28;20408;-76
2024/02/21 09:39:26;;;;;;;11.45;5.70;;;;;;;;;;5057586;28;20080;-77
2024/02/21 09:42:02;;;;;;;12.32;6.20;;;;;;;;;;5051967;28;20052;-77
2024/02/21 09:44:33;;;;;;;14.02;5.93;;;;;;;;;;5062420;28;20148;-78
2024/02/21 09:47:05;;;;;;;10.65;6.20;;;;;;;;;;5087389;28;20060;-76
2024/02/21 09:49:33;;;;;;;13.73;5.72;;;;;;;;;;5058931;28;20045;-76
2024/02/21 09:52:03;;;;;;;13.03;5.80;;;;;;;;;;5074140;28;20047;-76
2024/02/21 09:54:33;;;;;;;10.45;5.97;;;;;;;;;;5078029;28;20044;-76
2024/02/21 09:56:59;;;;;;;10.80;5.43;;;;;;;;;;5065746;28;20183;-76
2024/02/21 09:59:30;;;;;;;10.38;5.68;;;;;;;;;;5066061;28;20056;-74
2024/02/21 10:01:59;;;;;;;9.88;5.07;;;;;;;;;;5070040;28;20055;-76
2024/02/21 10:04:25;;;;;;;12.48;6.32;;;;;;;;;;5050883;28;20071;-77
2024/02/21 10:06:53;;;;;;;15.05;6.30;;;;;;;;;;5076506;28;20085;-75
2024/02/21 10:09:20;;;;;;;11.93;6.07;;;;;;;;;;5056302;28;20060;-75
2024/02/21 10:11:50;;;;;;;10.25;5.50;;;;;;;;;;5075576;28;20060;-75
2024/02/21 10:14:18;;;;;;;13.10;5.83;;;;;;;;;;5078949;28;20052;-75
2024/02/21 10:16:48;;;;;;;10.93;6.30;;;;;;;;;;5062569;28;20080;-75
2024/02/21 10:19:18;;;;;;;14.80;5.97;;;;;;;;;;5067971;28;20596;-76
2024/02/21 10:22:03;;;;;;;12.20;5.95;;;;;;;;;;5066566;28;20055;-75
2024/02/21 10:24:30;;;;;;;11.10;5.45;;;;;;;;;;5050373;28;20054;-74
2024/02/21 10:27:03;;;;;;;10.38;5.78;;;;;;;;;;5077906;28;20044;-76
2024/02/21 10:29:32;;;;;;;8.90;5.47;;;;;;;;;;5065687;28;20476;-77
2024/02/21 10:32:06;;;;;;;9.23;5.50;;;;;;;;;;5076841;28;20130;-76
2024/02/21 10:34:33;;;;;;;9.75;5.82;;;;;;;;;;5081145;28;20048;-76
2024/02/21 10:37:03;;;;;;;10.30;5.20;;;;;;;;;;5070739;28;20045;-77
2024/02/21 10:39:33;;;;;;;8.70;4.50;;;;;;;;;;5082319;28;20168;-77
2024/02/21 10:42:03;;;;;;;8.75;4.75;;;;;;;;;;5084920;28;20064;-77
2024/02/21 10:44:34;;;;;;;6.35;4.30;;;;;;;;;;5074493;28;20048;-77
2024/02/21 10:47:02;;;;;;;7.57;4.68;;;;;;;;;;5065634;28;20435;-76
2024/02/21 10:49:29;;;;;;;8.38;4.93;;;;;;;;;;5067090;28;20450;-77
2024/02/21 10:51:59;;;;;;;6.97;4.68;;;;;;;;;;5073151;28;20151;-76
2024/02/21 10:54:38;;;;;;;7.68;5.10;;;;;;;;;;5069077;28;20128;-77
2024/02/21 10:57:04;;;;;;;;;;;;;;;;;;5082332;28;20546;-74
2024/02/21 10:59:32;;;;;;;11.95;5.40;;;;;;;;;;5084062;28;20015;-76
2024/02/21 11:01:58;;;;;;;9.65;5.55;;;;;;;;;;5053646;28;20048;-77
2024/02/21 11:04:25;;;;;;;8.85;5.32;;;;;;;;;;5085961;28;20127;-77
2024/02/21 11:06:52;;;;;;;10.98;5.78;;;;;;;;;;5073332;28;20154;-79
2024/02/21 11:09:29;;;;;;;13.00;6.55;;;;;;;;;;5076735;28;20044;-78
2024/02/21 11:11:55;;;;;;;9.25;5.40;;;;;;;;;;5080333;28;20489;-78
2024/02/21 11:14:22;;;;;;;9.80;5.28;;;;;;;;;;5049103;28;20118;-76
2024/02/21 11:16:48;;;;;;;12.00;6.00;;;;;;;;;;5053403;28;20113;-77
2024/02/21 11:19:18;;;;;;;9.85;5.25;;;;;;;;;;5063788;28;20074;-78
2024/02/21 11:21:45;;;;;;;9.38;5.10;;;;;;;;;;5071235;28;20059;-77
2024/02/21 11:24:11;;;;;;;12.77;5.70;;;;;;;;;;5054935;28;20129;-80
2024/02/21 11:26:38;;;;;;;11.45;5.75;;;;;;;;;;5083165;28;20048;-79
2024/02/21 11:29:05;;;;;;;12.13;5.68;;;;;;;;;;5089622;28;20105;-80
2024/02/21 11:31:41;;;;;;;9.02;5.53;;;;;;;;;;5082321;28;20606;-79
2024/02/21 11:34:09;;;;;;;10.23;5.63;;;;;;;;;;5071940;28;20052;-78
2024/02/21 11:36:36;;;;;;;14.73;6.63;;;;;;;;;;5079611;28;20040;-78
2024/02/21 11:39:04;;;;;;;8.50;5.18;;;;;;;;;;5099345;28;20071;-78
2024/02/21 11:41:31;;;;;;;13.47;5.77;;;;;;;;;;5061536;28;20063;-78
2024/02/21 11:43:57;;;;;;;9.55;5.90;;;;;;;;;;5076592;28;20055;-78
2024/02/21 11:46:24;;;;;;;13.38;5.88;;;;;;;;;;5069559;28;20048;-78
2024/02/21 11:48:50;;;;;;;9.95;5.85;;;;;;;;;;5068756;28;20082;-79
2024/02/21 11:51:26;;;;;;;11.35;5.95;;;;;;;;;;5074724;28;20041;-78
2024/02/21 11:53:54;;;;;;;9.75;5.35;;;;;;;;;;5085957;28;20056;-79
2024/02/21 11:56:27;;;;;;;13.20;4.95;;;;;;;;;;5083955;28;20417;-78
2024/02/21 11:58:54;;;;;;;11.30;5.53;;;;;;;;;;5061663;28;20067;-78
2024/02/21 12:01:20;;;;;;;12.30;5.28;;;;;;;;;;5072440;28;20048;-77
2024/02/21 12:03:49;;;;;;;9.88;5.57;;;;;;;;;;5077465;28;20102;-78
2024/02/21 12:06:20;;;;;;;12.98;5.63;;;;;;;;;;5094219;27;20044;-77
2024/02/21 12:08:46;;;;;;;11.05;5.78;;;;;;;;;;5071846;28;20063;-79
2024/02/21 12:11:32;;;;;;;11.68;5.85;;;;;;;;;;5055576;28;20052;-79
2024/02/21 12:14:03;;;;;;;11.30;5.38;;;;;;;;;;5066767;28;20501;-78
2024/02/21 12:16:30;;;;;;;10.05;5.00;;;;;;;;;;5059638;28;20181;-79
2024/02/21 12:18:57;;;;;;;9.95;4.50;;;;;;;;;;5086122;28;20092;-78
2024/02/21 12:21:28;;;;;;;10.25;5.03;;;;;;;;;;5078167;28;20047;-78
2024/02/21 12:23:55;;;;;;;10.40;4.75;;;;;;;;;;5094822;27;20056;-78
2024/02/21 12:26:22;;;;;;;9.98;4.78;;;;;;;;;;5082101;28;20114;-79
2024/02/21 12:28:48;;;;;;;13.20;4.88;;;;;;;;;;5080420;28;20166;-78
2024/02/21 12:31:16;;;;;;;13.13;5.15;;;;;;;;;;5065488;28;20056;-79
2024/02/21 12:33:43;;;;;;;7.35;4.45;;;;;;;;;;5075179;28;20052;-78
2024/02/21 12:36:09;;;;;;;13.35;4.82;;;;;;;;;;5057518;28;20118;-78
2024/02/21 12:38:36;;;;;;;9.43;4.55;;;;;;;;;;5075276;28;20048;-78
2024/02/21 12:41:03;;;;;;;13.15;4.85;;;;;;;;;;5089538;28;20787;-78
2024/02/21 12:43:29;;;;;;;11.52;5.10;;;;;;;;;;5065170;28;20055;-77
2024/02/21 12:45:56;;;;;;;8.15;4.18;;;;;;;;;;5081966;28;20089;-79
2024/02/21 12:48:22;;;;;;;8.85;4.20;;;;;;;;;;5063846;28;20040;-78
2024/02/21 12:50:52;;;;;;;7.43;4.05;;;;;;;;;;5078442;28;20053;-78
2024/02/21 12:53:21;;;;;;;7.18;3.80;;;;;;;;;;5063143;28;20055;-78
2024/02/21 12:55:57;;;;;;;;;;;;;;;;;;5081625;28;20503;-78
2024/02/21 12:58:24;;;;;;;7.55;4.13;;;;;;;;;;5045810;28;19928;-77
2024/02/21 13:00:50;;;;;;;8.48;4.22;;;;;;;;;;5071632;28;20101;-79
2024/02/21 13:03:17;;;;;;;9.27;4.53;;;;;;;;;;5059659;28;20051;-78
2024/02/21 13:05:43;;;;;;;7.15;4.05;;;;;;;;;;5059426;28;20488;-79
2024/02/21 13:08:11;;;;;;;8.50;4.07;;;;;;;;;;5086257;28;20040;-77
2024/02/21 13:10:38;;;;;;;12.23;4.10;;;;;;;;;;5060174;28;20067;-78
2024/02/21 13:13:04;;;;;;;9.80;4.30;;;;;;;;;;5072683;28;20125;-78
2024/02/21 13:15:31;;;;;;;10.10;4.40;;;;;;;;;;5076831;28;20048;-77
2024/02/21 13:18:00;;;;;;;12.77;4.43;;;;;;;;;;5083123;28;20078;-78
2024/02/21 13:20:28;;;;;;;11.55;4.60;;;;;;;;;;5065757;28;20048;-77
2024/02/21 13:22:54;;;;;;;8.23;3.90;;;;;;;;;;5059535;28;20463;-77
2024/02/21 13:25:22;;;;;;;9.65;4.22;;;;;;;;;;5065989;28;20049;-77
2024/02/21 13:27:48;;;;;;;9.20;4.25;;;;;;;;;;5069702;28;20062;-77
2024/02/21 13:30:18;;;;;;;10.85;4.40;;;;;;;;;;5074348;28;20048;-77
2024/02/21 13:32:48;;;;;;;10.15;3.88;;;;;;;;;;5058920;28;20060;-76
2024/02/21 13:35:14;;;;;;;9.57;4.22;;;;;;;;;;5067381;28;20051;-77
2024/02/21 13:37:41;;;;;;;9.05;3.78;;;;;;;;;;5066131;28;20044;-76
2024/02/21 13:40:11;;;;;;;11.02;4.28;;;;;;;;;;5042729;28;20049;-76
2024/02/21 13:42:37;;;;;;;9.63;3.85;;;;;;;;;;5046140;28;20052;-76
2024/02/21 13:45:05;;;;;;;8.25;3.67;;;;;;;;;;5075835;28;20043;-78
2024/02/21 13:47:41;;;;;;;8.82;3.72;;;;;;;;;;5081162;28;20066;-76
2024/02/21 13:50:11;;;;;;;10.73;4.25;;;;;;;;;;5085724;28;20055;-77
2024/02/21 13:52:37;;;;;;;9.27;3.88;;;;;;;;;;5065566;28;20044;-77
2024/02/21 13:55:04;;;;;;;7.40;3.95;;;;;;;;;;5066491;28;20040;-76
2024/02/21 13:57:30;;;;;;;9.38;4.18;;;;;;;;;;5087577;28;21083;-77
2024/02/21 13:59:57;;;;;;;8.52;4.00;;;;;;;;;;5081018;28;21208;-76
2024/02/21 14:02:23;;;;;;;11.02;3.97;;;;;;;;;;5064620;28;20559;-77
2024/02/21 14:04:50;;;;;;;9.38;4.63;;;;;;;;;;5070116;28;20083;-77
2024/02/21 14:07:17;;;;;;;9.20;3.63;;;;;;;;;;5073752;28;20064;-76
2024/02/21 14:09:43;;;;;;;10.20;3.95;;;;;;;;;;5058617;28;20048;-76
2024/02/21 14:12:10;;;;;;;9.57;3.75;;;;;;;;;;5078562;28;20084;-76
2024/02/21 14:14:36;;;;;;;9.95;3.97;;;;;;;;;;5072626;28;20053;-76
2024/02/21 14:17:05;;;;;;;8.15;4.35;;;;;;;;;;5069132;28;20127;-76
2024/02/21 14:19:32;;;;;;;7.80;3.85;;;;;;;;;;5072223;28;20056;-77
2024/02/21 14:21:59;;;;;;;8.15;3.13;;;;;;;;;;5066652;28;20052;-76
2024/02/21 14:24:27;;;;;;;8.25;3.05;;;;;;;;;;5069452;28;20052;-77
2024/02/21 14:26:54;;;;;;;;;;;;;;;;;;5073097;28;20516;-77
2024/02/21 14:29:21;;;;;;;8.43;3.10;;;;;;;;;;5061178;28;19977;-76
2024/02/21 14:31:48;;;;;;;8.25;3.35;;;;;;;;;;5076599;28;20591;-76